新東京国際空港の過去48時間の天気

新東京国際空港 (Tokyo/New Tokyo Intl)

現在時刻: 5/28 13:36 JST (5/28 04:36 UTC) 以下の時間は現地時間です。

過去48時間のMETAR気象情報
時間 風向 風速(m/s) 視程 気温(℃) 湿度(%) 気圧(hPa) 天気現象
28 13:00 4 10km以上 23 61 1006
28 12:30 3 10km以上 22 53 1007
28 12:00 南東 3 10km以上 23 61 1007
28 11:30 不定 2 10km以上 22 65 1007
28 11:00 3 10km以上 21 60 1007
28 10:30 東南東 3 10km以上 21 64 1007
28 10:00 3 10km以上 20 64 1007
28 09:30 3 10km以上 21 64 1007
28 09:00 4 10km以上 20 68 1007
28 08:30 4 10km以上 19 73 1007
28 08:00 東北東 4 10km以上 19 68 1007
28 07:30 北東 4 10km以上 19 73 1007
28 07:00 東北東 4 10km以上 19 73 1007
28 06:30 東北東 3 10km以上 19 73 1007
28 06:00 北東 2 10km以上 18 77 1006
28 05:30 北北東 2 10km以上 18 77 1006
28 05:00 3 10km以上 18 77 1006
28 04:30 北北東 3 10km以上 17 83 1006
28 04:00 北北東 3 10km以上 17 83 1006
28 03:30 北北東 3 10km以上 17 88 1005
28 03:00 北北東 3 10km以上 18 83 1005
28 02:30 北北東 3 10km以上 18 88 1004
28 02:00 北東 3 10km以上 18 88 1004
28 01:30 北北東 3 10km以上 18 88 1004
28 01:00 北北東 3 10km以上 18 88 1004
28 00:30 北北東 3 10km以上 18 94 1004
28 00:00 北北東 4 10km以上 18 94 1004
27 23:30 北北東 4 10km以上 19 88 1004
27 23:00 北北東 5 10km以上 19 94 1004
27 22:30 北北東 4 10km以上 19 94 1003
27 22:00 北北東 4 10km以上 19 94 1003
27 21:30 北北東 4 10km以上 19 94 1003
27 21:00 北北東 4 10km以上 20 88 1003
27 20:30 北北東 4 10km以上 20 88 1003
27 20:00 北東 3 10km以上 20 88 1002
27 19:30 東南東 2 10km以上 19 94 1002
27 19:00 2 10km以上 20 88 1002
27 18:30 東南東 2 10km以上 20 88 1002
27 18:00 東南東 3 10km以上 21 83 1001
27 17:30 東南東 3 10km以上 22 78 1001
27 17:00 南東 5 10km以上 22 83 1001
27 16:30 南東 4 10km以上 22 78 1001
27 16:00 東南東 4 10km以上 23 73 1001
27 15:30 東南東 4 10km以上 22 78 1001
27 15:00 東南東 5 10km以上 23 78 1001
27 14:30 南東 6 10km以上 23 78 1002
27 14:00 南東 5 10km以上 22 83 1002
27 13:30 東南東 4 10km以上 22 78 1002
27 13:00 北北東 2 10km以上 23 69 1002
27 12:30 不定 1 10km以上 23 73 1003
27 12:00 北東 2 10km以上 22 78 1003
27 11:30 北北西 2 10km以上 22 73 1003
27 11:00 2 10km以上 21 78 1003
27 10:30 4 10km以上 22 73 1004
27 10:00 4 10km以上 21 83 1004
27 09:30 5 10km以上 20 88 1004
27 09:00 5 10km以上 19 88 1004 弱いしゅう雨
27 08:30 5 10km以上 19 94 1004 弱いしゅう雨
27 08:00 北北西 4 10km以上 19 94 1004 弱いしゅう雨
27 07:30 北北西 3 8000m 19 100 1004 弱いしゅう雨
27 07:00 北北西 3 3200m 19 100 1004 もや 周辺でしゅう雨
27 06:30 北北西 2 1700m 19 100 1003 もや
27 06:00 静穏 0 1100m 19 100 1003 周辺でしゅう雨 散在した霧 もや
27 05:30 不定 1 800m 19 100 1003
27 05:00 東北東 2 900m 19 100 1003
27 04:30 北東 1 1500m 19 100 1003 散在した霧 もや
27 04:00 北北東 2 2000m 19 100 1003 もや
27 03:30 東北東 1 1200m 19 100 1003 散在した霧 もや
27 03:00 北東 2 1500m 19 100 1003 散在した霧 もや
27 02:30 2 1800m 19 100 1004 弱いしゅう雨 もや
27 02:00 北西 2 700m 19 100 1004 弱いしゅう雨 霧
27 01:30 静穏 0 700m 20 100 1004 弱いしゅう雨 霧
27 01:00 静穏 0 1500m 19 100 1004 散在した霧 もや
27 00:30 南東 1 1300m 19 100 1005 散在した霧 もや
27 00:00 南東 1 1200m 20 100 1005 散在した霧 もや
26 23:30 不定 1 1200m 20 100 1005 散在した霧 もや
26 23:00 南東 2 1400m 19 100 1006 散在した霧 もや
26 22:30 南東 1 2000m 19 100 1006 散在した霧 もや
26 22:00 南東 1 3000m 19 100 1006 弱いしゅう雨 もや
26 21:30 南東 1 3500m 20 100 1007 弱いしゅう雨 もや
26 21:00 不定 1 3500m 20 100 1007 弱いしゅう雨 もや
26 20:30 東南東 1 5000m 20 94 1007 弱いしゅう雨 もや
26 20:00 南東 2 6000m 20 94 1007 弱いしゅう雨
26 19:30 東南東 2 8000m 20 94 1007 弱いしゅう雨
26 19:00 東南東 3 8000m 19 100 1007 弱いしゅう雨
26 18:30 東南東 3 10km以上 19 100 1006 弱いしゅう雨
26 18:00 南東 3 10km以上 19 100 1007 弱いしゅう雨
26 17:30 東南東 4 10km以上 20 94 1007 弱いしゅう雨
26 17:00 東南東 4 10km以上 20 94 1006 弱いしゅう雨
26 16:30 東南東 4 10km以上 20 94 1007 弱いしゅう雨
26 16:00 東南東 4 10km以上 20 94 1007 弱いしゅう雨
26 15:30 東南東 5 10km以上 20 94 1007 弱いしゅう雨
26 15:00 東南東 5 10km以上 20 94 1007 弱いしゅう雨
26 14:30 南東 5 10km以上 21 88 1007
26 14:00 南東 5 10km以上 22 83 1007
RJAA 280400Z 10008KT 060V140 9999 FEW030 SCT060 23/15 Q1006 NOSIG
RJAA 280330Z VRB05KT 9999 FEW030 BKN060 22/12 Q1007 BECMG 14008KT
RJAA 280300Z 13006KT 060V170 9999 FEW030 BKN060 23/15 Q1007 NOSIG
RJAA 280230Z VRB04KT 9999 FEW030 BKN/// 22/15 Q1007 BECMG 12008KT
RJAA 280200Z 09005KT 030V170 9999 FEW030 SCT060 BKN/// 21/13 Q1007 NOSIG
RJAA 280130Z 11006KT 350V160 9999 FEW030 SCT060 BKN/// 21/14 Q1007 NOSIG
RJAA 280100Z 10006KT 9999 FEW030 SCT060 BKN/// 20/13 Q1007 NOSIG
RJAA 280030Z 08006KT 040V120 9999 FEW030 SCT080 BKN/// 21/14 Q1007 NOSIG
RJAA 280000Z 09008KT 9999 FEW030 BKN080 BKN/// 20/14 Q1007 NOSIG
RJAA 272330Z 09008KT 9999 FEW025 SCT060 BKN070 19/14 Q1007 NOSIG
RJAA 272300Z 07007KT 9999 FEW025 BKN060 19/13 Q1007 NOSIG
RJAA 272230Z 05007KT 9999 FEW030 BKN060 19/14 Q1007 BECMG 08006KT
RJAA 272200Z 06007KT 010V090 9999 FEW025 SCT060 BKN/// 19/14 Q1007 BECMG 08006KT
RJAA 272130Z 07006KT 040V100 9999 FEW025 BKN/// 19/14 Q1007 NOSIG
RJAA 272100Z 05004KT 010V080 9999 FEW020 SCT060 BKN/// 18/14 Q1006 NOSIG
RJAA 272030Z 02004KT 9999 FEW020 BKN060 BKN/// 18/14 Q1006 NOSIG
RJAA 272000Z 01005KT 9999 FEW020 BKN060 BKN/// 18/14 Q1006 NOSIG
RJAA 271930Z 02005KT 9999 FEW015 BKN060 17/14 Q1006 NOSIG
RJAA 271900Z 03005KT 9999 FEW015 BKN060 BKN/// 17/14 Q1006 NOSIG
RJAA 271830Z 03005KT 9999 FEW015 BKN060 17/15 Q1005 NOSIG
RJAA 271800Z 02006KT 9999 FEW015 BKN060 18/15 Q1005 NOSIG
RJAA 271730Z 03006KT 9999 FEW015 BKN060 BKN/// 18/16 Q1004 NOSIG
RJAA 271700Z 04005KT 9999 FEW015 SCT050 BKN/// 18/16 Q1004 NOSIG
RJAA 271630Z 03005KT 9999 FEW015 SCT050 BKN/// 18/16 Q1004 NOSIG
RJAA 271600Z 03006KT 9999 FEW015 BKN/// 18/16 Q1004 NOSIG
RJAA 271530Z 03006KT 9999 FEW015 BKN/// 18/17 Q1004 NOSIG
RJAA 271500Z 03007KT 9999 FEW015 BKN/// 18/17 Q1004 NOSIG
RJAA 271430Z 02008KT 9999 FEW015 BKN/// 19/17 Q1004 NOSIG
RJAA 271400Z 02009KT 9999 FEW006 BKN/// 19/18 Q1004 NOSIG
RJAA 271330Z 03007KT 9999 FEW015 BKN/// 19/18 Q1003 NOSIG
RJAA 271300Z 03007KT 360V070 9999 FEW015 BKN/// 19/18 Q1003 NOSIG
RJAA 271230Z 02008KT 9999 FEW015 SCT050 BKN/// 19/18 Q1003 NOSIG
RJAA 271200Z 03008KT 9999 FEW007 SCT030 BKN/// 20/18 Q1003 TEMPO FEW008 BKN012
RJAA 271130Z 03008KT 9999 FEW020 FEW025CB BKN/// 20/18 Q1003 TEMPO FEW008 BKN012
RJAA 271100Z 05006KT 020V080 9999 FEW020 FEW025CB BKN/// 20/18 Q1002 NOSIG
RJAA 271030Z 12004KT 070V140 9999 FEW020 BKN/// 19/18 Q1002 BECMG TL1100 04008KT
RJAA 271000Z 09004KT 050V120 9999 FEW020 BKN/// 20/18 Q1002 BECMG TL1100 04008KT
RJAA 270930Z 12004KT 090V150 9999 FEW020 BKN/// 20/18 Q1002 BECMG TL1100 04008KT
RJAA 270900Z 11005KT 9999 FEW020 BKN/// 21/18 Q1001 BECMG FM0930 04008KT
RJAA 270830Z 12006KT 9999 FEW020 BKN/// 22/18 Q1001 BECMG FM0930 04008KT
RJAA 270800Z 13009KT 9999 FEW020 BKN/// 22/19 Q1001 BECMG FM0900 04008KT
RJAA 270730Z 13008KT 080V170 9999 FEW020 BKN/// 22/18 Q1001 NOSIG
RJAA 270700Z 12008KT 090V160 9999 FEW020 BKN/// 23/18 Q1001 NOSIG
RJAA 270630Z 12008KT 9999 FEW020 BKN/// 22/18 Q1001 NOSIG
RJAA 270600Z 12009KT 9999 FEW020 BKN/// 23/19 Q1001 NOSIG
RJAA 270530Z 13011KT 9999 FEW020 SCT050 BKN/// 23/19 Q1002 NOSIG
RJAA 270500Z 13010KT 9999 FEW020 BKN025 BKN035 22/19 Q1002 NOSIG
RJAA 270430Z 11007KT 070V140 9999 FEW020 BKN030 BKN/// 22/18 Q1002 NOSIG
RJAA 270400Z 02004KT 330V120 9999 FEW020 SCT045 BKN/// 23/17 Q1002 WS R16R BECMG 14006KT
RJAA 270330Z VRB02KT 9999 FEW020 SCT045 BKN/// 23/18 Q1003 BECMG 14006KT
RJAA 270300Z 04004KT 340V110 9999 FEW020 SCT045 BKN/// 22/18 Q1003 BECMG TL0330 14006KT
RJAA 270230Z 34004KT 300V040 9999 FEW015 BKN022 BKN045 22/17 Q1003 BECMG TL0330 14006KT
RJAA 270200Z 08003KT 350V160 9999 FEW020 SCT045 BKN/// 21/17 Q1003 NOSIG
RJAA 270130Z 01008KT 9999 FEW015 BKN/// 22/17 Q1004 NOSIG
RJAA 270100Z 36007KT 9999 FEW009 SCT012 BKN020 21/18 Q1004 NOSIG
RJAA 270030Z 01009KT 9999 FEW006 SCT009 BKN015 20/18 Q1004 NOSIG
RJAA 270000Z 36009KT 9999 -SHRA FEW006 SCT008 BKN018 19/17 Q1004 NOSIG
RJAA 262330Z 36009KT 9999 -SHRA FEW004 BKN006 BKN008 19/18 Q1004 NOSIG
RJAA 262300Z 34007KT 9999 -SHRA FEW004 BKN005 BKN006 19/18 Q1004 BECMG FEW005 BKN007
RJAA 262230Z 34006KT 8000 -SHRA FEW004 BKN005 BKN006 19/19 Q1004 BECMG FEW005 BKN007
RJAA 262200Z 33006KT 3200 BR VCSH FEW002 SCT004 BKN005 19/19 Q1004 NOSIG
RJAA 262130Z 34003KT 1700 R16R/1400VP2000U R16L///// BR FEW002 BKN003 BKN004 19/19 Q1003 NOSIG
RJAA 262100Z 00000KT 1100 R16R/0800V1100N R16L///// BCFG BR VCSH FEW001 BKN002 BKN004 19/19 Q1003 BECMG TL2200 2000 BR
RJAA 262030Z VRB02KT 0800 R16R/0650N R16L///// FG FEW001 BKN002 19/19 Q1003 BECMG TL2200 2000 BR
RJAA 262000Z 06003KT 020V120 0900 R16R/0800V1700N R16L///// FG FEW001 BKN002 19/19 Q1003 TEMPO 0500 FG
RJAA 261930Z 05002KT 1500 R16R/1800D R16L///// BCFG BR FEW001 BKN002 19/19 Q1003 TEMPO 0500 FG
RJAA 261900Z 03003KT 2000 R16R/P2000N R16L///// BR FEW001 BKN002 19/19 Q1003 TEMPO 0500 FG
RJAA 261830Z 07002KT 1200 R16R/2000N R16L///// BCFG BR FEW001 BKN002 19/19 Q1003 TEMPO 0500 FG
RJAA 261800Z 05003KT 1500 R16R/P2000N R16L///// BCFG BR FEW001 BKN002 19/19 Q1003 TEMPO 0500 FG
RJAA 261730Z 01004KT 1800 R16R/P2000N R16L///// -SHRA BR FEW001 BKN002 BKN004 19/19 Q1004 TEMPO 0500 FG
RJAA 261700Z 32003KT 0700 R16R/0650N R16L///// -SHRA FG FEW001 BKN002 19/19 Q1004 NOSIG
RJAA 261630Z 00000KT 0700 R16R/0800N R16L///// -SHRA FG FEW001 BKN002 20/20 Q1004 NOSIG
RJAA 261600Z 00000KT 1500 R16R/0700V1200D R16L///// BCFG BR FEW001 BKN002 BKN012 19/19 Q1004 TEMPO 0700 FG
RJAA 261530Z 14002KT 1300 R16R/0550V1400D R16L///// BCFG BR FEW001 BKN002 BKN014 19/19 Q1005 TEMPO 0700 FG
RJAA 261500Z 13001KT 1200 R16R/0800V1300U R16L///// BCFG BR FEW001 BKN002 20/20 Q1005 TEMPO 0700 FG
RJAA 261430Z VRB01KT 1200 R16R/1300VP2000U R16L///// BCFG BR FEW001 BKN002 20/20 Q1005 BECMG 2000 BR
RJAA 261400Z 13003KT 090V160 1400 R16R/P2000N R16L///// BCFG BR FEW000 SCT001 BKN002 19/19 Q1006 NOSIG
RJAA 261330Z 13001KT 2000 R16R/P2000N R16L///// BCFG BR FEW000 SCT001 BKN110 19/19 Q1006 TEMPO 1400 BR BCFG FEW001 BKN002
RJAA 261300Z 13002KT 3000 R16R/P2000N R16L///// -SHRA BR FEW001 BKN002 BKN120 19/19 Q1006 NOSIG
RJAA 261230Z 13002KT 3500 -SHRA BR FEW001 BKN002 BKN070 20/20 Q1007 NOSIG
RJAA 261200Z VRB01KT 3500 -SHRA BR FEW002 BKN003 BKN070 20/20 Q1007 NOSIG
RJAA 261130Z 12002KT 5000 -SHRA BR FEW002 BKN003 BKN070 20/19 Q1007 TEMPO 4000 -SHRA BR
RJAA 261100Z 13004KT 6000 -SHRA FEW002 BKN003 20/19 Q1007 NOSIG
RJAA 261030Z 12004KT 8000 -SHRA FEW003 BKN004 20/19 Q1007 NOSIG
RJAA 261000Z 12005KT 8000 -SHRA FEW005 SCT006 BKN120 19/19 Q1007 TEMPO FEW005 BKN007
RJAA 260930Z 12006KT 9999 -SHRA FEW004 SCT006 BKN100 19/19 Q1006 TEMPO FEW004 BKN005
RJAA 260900Z 13006KT 9999 -SHRA FEW005 BKN006 BKN100 19/19 Q1007 TEMPO FEW004 BKN005
RJAA 260830Z 11007KT 9999 -SHRA SCT006 BKN100 20/19 Q1007 TEMPO FEW005 BKN007
RJAA 260800Z 12007KT 9999 -SHRA FEW006 BKN007 BKN100 20/19 Q1006 NOSIG
RJAA 260730Z 12007KT 9999 -SHRA FEW008 BKN100 20/19 Q1007 TEMPO FEW005 BKN008
RJAA 260700Z 12008KT 9999 -SHRA FEW006 SCT009 BKN110 20/19 Q1007 TEMPO FEW006 BKN009
RJAA 260630Z 12009KT 9999 -SHRA FEW006 SCT010 BKN110 20/19 Q1007 TEMPO 4000 -SHRA BR FEW005 BKN008
RJAA 260600Z 12009KT 9999 -SHRA FEW008 SCT015 BKN110 20/19 Q1007 TEMPO 4000 -SHRA BR FEW005 BKN008
RJAA 260530Z 14009KT 9999 FEW009 SCT015 BKN110 21/19 Q1007 TEMPO 4000 -SHRA BR FEW005 BKN008
RJAA 260500Z 13009KT 9999 FEW013 SCT018 BKN130 22/19 Q1007 NOSIG